Flight Track Log - Related Links

Times and Time Zones

All times are in EDT time to prevent confusion due to time zone crossing. See the SWA2520 flight status page for this flight to view local times or setup timezone preferences in your user account.

Time Position Orientation Groundspeed Altitude Reporting Facility
EDT Latitude Longitude Course Direction KTS MPH feet Rate Location/Type
Mon 07:43:31 PM 37.3833 -121.9500 345° North 175 201 1,900  Level Northern TRACON
Mon 07:44:31 PM 37.4333 -121.9667 345° North 230 265 4,800 1,650 Climbing Northern TRACON
Mon 07:45:31 PM 37.4333 -121.9000 90° East 247 284 5,200 1,600 Climbing Northern TRACON
Mon 07:46:31 PM 37.3833 -121.8500 142° Southeast 278 320 8,000 3,030 Climbing Northern TRACON
Mon 07:47:12 PM 37.3433 -121.8108 142° Southeast 287 330 10,300 3,262 Climbing Oakland Center
Mon 07:48:14 PM 37.2733 -121.7300 137° Southeast 337 388 13,600 3,512 Climbing Oakland Center
Mon 07:49:15 PM 37.1983 -121.6394 136° Southeast 368 423 17,500 3,984 Climbing Oakland Center
Mon 07:50:16 PM 37.1025 -121.5294 138° Southeast 389 448 21,700 3,268 Climbing Oakland Center
Mon 07:51:18 PM 37.0297 -121.4522 140° Southeast 406 467 24,200 2,878 Climbing Oakland Center
Mon 07:52:19 PM 36.9236 -121.3356 139° Southeast 423 487 27,600 2,803 Climbing Oakland Center
Mon 07:53:20 PM 36.8328 -121.2350 138° Southeast 436 502 29,900 1,951 Climbing Oakland Center
Mon 07:54:22 PM 36.7481 -121.1475 140° Southeast 450 518 31,600 2,341 Climbing Oakland Center
Mon 07:55:23 PM 36.6328 -121.0217 139° Southeast 458 527 34,700 2,607 Climbing Oakland Center
Mon 07:56:24 PM 36.5400 -120.9206 139° Southeast 446 513 36,900 1,805 Climbing Oakland Center
Mon 07:57:26 PM 36.4472 -120.8225 140° Southeast 439 505 38,400 1,220 Climbing Oakland Center
Mon 07:58:27 PM 36.3522 -120.7200 139° Southeast 449 517 39,400 1,220 Climbing Oakland Center
Mon 07:59:29 PM 36.2569 -120.6181 139° Southeast 452 520 40,900 780 Climbing Oakland Center
Mon 08:00:30 PM 36.1633 -120.5211 140° Southeast 440 506 41,000 31 Climbing Oakland Center
Mon 08:02:44 PM 35.9589 -120.3044 139° Southeast 438 504 41,000  Level Los Center
Mon 08:03:46 PM 35.8661 -120.2069 140° Southeast 437 503 41,000  Level Los Center
Mon 08:04:35 PM 35.7917 -120.1283 139° Southeast 437 503 41,000  Level Oakland Center
Mon 08:05:36 PM 35.6983 -120.0314 140° Southeast 436 502 41,000 -341 Level Oakland Center
Mon 08:06:38 PM 35.6022 -119.9378 142° Southeast 437 503 40,300 -878 Descending Oakland Center
Mon 08:07:39 PM 35.4808 -119.8350 145° Southeast 437 503 39,200 -1,033 Descending Oakland Center
Mon 08:08:40 PM 35.3811 -119.7481 145° Southeast 436 502 38,200 -935 Descending Oakland Center
Mon 08:08:56 PM 35.3614 -119.7319 146° Southeast 437 503 38,000 -846 Descending Los Center
Mon 08:09:58 PM 35.2611 -119.6458 145° Southeast 438 504 37,100 -919 Descending Los Center
Mon 08:11:00 PM 35.1592 -119.5581 145° Southeast 444 511 36,100 -1,016 Descending Los Center
Mon 08:12:02 PM 35.0567 -119.4708 145° Southeast 449 517 35,000 -2,323 Descending Los Center
Mon 08:13:04 PM 34.9319 -119.3653 145° Southeast 453 521 31,300 -3,024 Descending Los Center
Mon 08:14:07 PM 34.8306 -119.2783 145° Southeast 448 516 28,700 -2,448 Descending Los Center
Mon 08:15:09 PM 34.7331 -119.1953 145° Southeast 431 496 26,200 -2,468 Descending Los Center
Mon 08:16:11 PM 34.6281 -119.1083 146° Southeast 416 479 23,600 -2,419 Descending Los Center
Mon 08:17:13 PM 34.5358 -119.0300 145° Southeast 401 461 21,200 -2,274 Descending Los Center
Mon 08:18:15 PM 34.4464 -118.9578 146° Southeast 383 441 18,900 -2,274 Descending Los Center
Mon 08:19:17 PM 34.3608 -118.8875 146° Southeast 373 429 16,500 -2,274 Descending Los Center
Mon 08:20:19 PM 34.2653 -118.8483 161° South 363 418 14,200 -2,177 Descending Los Center
Mon 08:21:21 PM 34.1711 -118.8131 163° South 355 409 12,000 -1,500 Descending Los Center
Mon 08:22:23 PM 34.0636 -118.7733 163° South 333 383 11,100 -774 Descending Los Center
Mon 08:23:25 PM 34.0314 -118.6928 116° Southeast 276 318 10,400 -919 Descending Los Center
Mon 08:24:27 PM 34.0239 -118.6047 96° East 265 305 9,200 -1,258 Descending Los Center
Mon 08:25:29 PM 34.0150 -118.5106 96° East 261 300 7,800 -1,258 Descending Los Center
Mon 08:26:31 PM 34.0122 -118.4328 92° East 256 295 6,600 -1,355 Descending Los Center
Mon 08:27:33 PM 34.0225 -118.3464 82° East 257 296 5,000 -1,403 Descending Los Center
Mon 08:28:35 PM 34.0233 -118.2647 89° East 252 290 3,700 -1,452 Descending Los Center
Mon 08:29:37 PM 33.9672 -118.2875 199° South 222 255 2,000 -1,268 Descending Los Center
Mon 08:30:38 PM 33.9575 -118.3433 258° West 192 221 1,100 -780 Descending Los Center
Mon 08:31:40 PM 33.9553 -118.3842 266° West 149 171 400 -435 Descending Los Center
Mon 08:32:42 PM 33.9494 -118.4222 260° West 140 161 200 -194 Descending Los Center
Mon 08:34:00 PM 33.9425 -118.4081 270° West  Level Estimated

Login

Don't have an account? Register now (free) for customized features, flight alerts, and more!